KRF69R EGHQ-EGLL
Flight info
| Callsign | KRF69R |
|---|---|
| Flight time | 0h 36m |
| Altitude | 23000 |
| Route | DAWLY N17 OTMET |
| Aircraft | A339/H-SADE1E2E3GHIJ3J5M1P2RWXY/LB2D1 |
Departure
| Time | 2026-05-09 21:45 |
|---|---|
| Airport | Cornwall Airport Newquay (EGHQ) |
Arrival
| Time | 2026-05-09 22:21 |
|---|---|
| Airport | London Heathrow Airport (EGLL) |
| Time | Latitude | Longitude | Altitude | Speed | Heading |
|---|---|---|---|---|---|
| 2026-05-09 21:18 | 50.44161 | -5.00584 | 335 ft | 0 kts | 66° |
| 2026-05-09 21:37 | 50.44166 | -5.00568 | 313 ft | 3 kts | 66° |
| 2026-05-09 21:37 | 50.44172 | -5.00545 | 310 ft | 2 kts | 68° |
| 2026-05-09 21:38 | 50.44184 | -5.00493 | 336 ft | 0 kts | 69° |
| 2026-05-09 21:38 | 50.44184 | -5.00492 | 336 ft | 1 kts | 69° |
| 2026-05-09 21:38 | 50.44193 | -5.00462 | 351 ft | 5 kts | 64° |
| 2026-05-09 21:39 | 50.44223 | -5.00417 | 352 ft | 12 kts | 41° |
| 2026-05-09 21:39 | 50.44276 | -5.00285 | 354 ft | 15 kts | 63° |
| 2026-05-09 21:39 | 50.44296 | -5.00128 | 348 ft | 15 kts | 105° |
| 2026-05-09 21:39 | 50.44242 | -4.99973 | 358 ft | 18 kts | 121° |
| 2026-05-09 21:40 | 50.44174 | -4.99790 | 358 ft | 21 kts | 120° |
| 2026-05-09 21:40 | 50.44094 | -4.99581 | 359 ft | 23 kts | 120° |
| 2026-05-09 21:40 | 50.44016 | -4.99367 | 359 ft | 23 kts | 120° |
| 2026-05-09 21:40 | 50.43935 | -4.99155 | 363 ft | 22 kts | 120° |
| 2026-05-09 21:41 | 50.43856 | -4.98944 | 370 ft | 23 kts | 121° |
| 2026-05-09 21:41 | 50.43775 | -4.98731 | 371 ft | 23 kts | 120° |
| 2026-05-09 21:41 | 50.43698 | -4.98523 | 378 ft | 21 kts | 121° |
| 2026-05-09 21:41 | 50.43626 | -4.98336 | 383 ft | 19 kts | 120° |
| 2026-05-09 21:42 | 50.43563 | -4.98180 | 391 ft | 16 kts | 123° |
| 2026-05-09 21:42 | 50.43527 | -4.98033 | 393 ft | 13 kts | 96° |
| 2026-05-09 21:42 | 50.43501 | -4.97907 | 398 ft | 11 kts | 118° |
| 2026-05-09 21:42 | 50.43457 | -4.97893 | 400 ft | 5 kts | 208° |
| 2026-05-09 21:43 | 50.43462 | -4.97938 | 400 ft | 5 kts | 289° |
| 2026-05-09 21:43 | 50.43501 | -4.98006 | 397 ft | 12 kts | 311° |
| 2026-05-09 21:43 | 50.43511 | -4.98030 | 389 ft | 0 kts | 302° |
| 2026-05-09 21:44 | 50.43521 | -4.98054 | 393 ft | 22 kts | 303° |
| 2026-05-09 21:44 | 50.43815 | -4.98838 | 368 ft | 140 kts | 301° |
| 2026-05-09 21:44 | 50.44391 | -5.00524 | 727 ft | 193 kts | 302° |
| 2026-05-09 21:45 | 50.45077 | -5.02377 | 1739 ft | 194 kts | 320° |
| 2026-05-09 21:45 | 50.46204 | -5.03419 | 2828 ft | 194 kts | 353° |
| 2026-05-09 21:45 | 50.47618 | -5.03721 | 3603 ft | 218 kts | 359° |
| 2026-05-09 21:45 | 50.49196 | -5.03978 | 4393 ft | 238 kts | 359° |
| 2026-05-09 21:46 | 50.50922 | -5.04218 | 5079 ft | 259 kts | 359° |
| 2026-05-09 21:46 | 50.52750 | -5.04439 | 6018 ft | 266 kts | 359° |
| 2026-05-09 21:46 | 50.54607 | -5.04611 | 7077 ft | 265 kts | 7° |
| 2026-05-09 21:46 | 50.56341 | -5.03811 | 8147 ft | 262 kts | 33° |
| 2026-05-09 21:47 | 50.57819 | -5.02117 | 9017 ft | 271 kts | 40° |
| 2026-05-09 21:47 | 50.59334 | -5.00318 | 10146 ft | 273 kts | 39° |
| 2026-05-09 21:47 | 50.60891 | -4.98463 | 10830 ft | 292 kts | 39° |
| 2026-05-09 21:47 | 50.62566 | -4.96412 | 11268 ft | 318 kts | 39° |
| 2026-05-09 21:48 | 50.64367 | -4.94199 | 11848 ft | 336 kts | 39° |
| 2026-05-09 21:48 | 50.66222 | -4.91879 | 12740 ft | 345 kts | 39° |
| 2026-05-09 21:48 | 50.68109 | -4.89487 | 13673 ft | 353 kts | 39° |
| 2026-05-09 21:48 | 50.69983 | -4.86940 | 14571 ft | 358 kts | 47° |
| 2026-05-09 21:49 | 50.71335 | -4.83638 | 15487 ft | 363 kts | 68° |
| 2026-05-09 21:49 | 50.71892 | -4.79757 | 16407 ft | 366 kts | 88° |
| 2026-05-09 21:49 | 50.71688 | -4.75791 | 17322 ft | 371 kts | 100° |
| 2026-05-09 21:49 | 50.71194 | -4.71766 | 18202 ft | 377 kts | 103° |
| 2026-05-09 21:50 | 50.70656 | -4.67692 | 18999 ft | 382 kts | 102° |
| 2026-05-09 21:50 | 50.70147 | -4.63535 | 19784 ft | 388 kts | 102° |
| 2026-05-09 21:50 | 50.69214 | -4.55033 | 21468 ft | 398 kts | 101° |
| 2026-05-09 21:51 | 50.68761 | -4.50702 | 22385 ft | 402 kts | 101° |
| 2026-05-09 21:51 | 50.68306 | -4.46317 | 22892 ft | 408 kts | 101° |
| 2026-05-09 21:51 | 50.67847 | -4.41900 | 23071 ft | 409 kts | 101° |
| 2026-05-09 21:51 | 50.67381 | -4.37460 | 23089 ft | 421 kts | 101° |
| 2026-05-09 21:52 | 50.66901 | -4.32903 | 23089 ft | 421 kts | 101° |
| 2026-05-09 21:52 | 50.66421 | -4.28350 | 23094 ft | 422 kts | 101° |
| 2026-05-09 21:52 | 50.65937 | -4.23795 | 23089 ft | 421 kts | 101° |
| 2026-05-09 21:52 | 50.65454 | -4.19254 | 23096 ft | 421 kts | 101° |
| 2026-05-09 21:53 | 50.64967 | -4.14710 | 23107 ft | 421 kts | 101° |
| 2026-05-09 21:53 | 50.64478 | -4.10159 | 23107 ft | 421 kts | 101° |
| 2026-05-09 21:53 | 50.63988 | -4.05622 | 23105 ft | 420 kts | 101° |
| 2026-05-09 21:54 | 50.63002 | -3.96535 | 23087 ft | 421 kts | 101° |
| 2026-05-09 21:54 | 50.62513 | -3.92058 | 23081 ft | 421 kts | 102° |
| 2026-05-09 21:54 | 50.62016 | -3.87518 | 23089 ft | 421 kts | 102° |
| 2026-05-09 21:54 | 50.61517 | -3.82975 | 23080 ft | 421 kts | 102° |
| 2026-05-09 21:55 | 50.61015 | -3.78438 | 23084 ft | 420 kts | 102° |
| 2026-05-09 21:55 | 50.60513 | -3.73904 | 23087 ft | 421 kts | 102° |
| 2026-05-09 21:55 | 50.60009 | -3.69360 | 23082 ft | 421 kts | 102° |
| 2026-05-09 21:55 | 50.59503 | -3.64830 | 23077 ft | 420 kts | 102° |
| 2026-05-09 21:56 | 50.58995 | -3.60291 | 23079 ft | 421 kts | 102° |
| 2026-05-09 21:56 | 50.58485 | -3.55753 | 23085 ft | 420 kts | 102° |
| 2026-05-09 21:56 | 50.57989 | -3.51227 | 23087 ft | 420 kts | 99° |
| 2026-05-09 21:56 | 50.57781 | -3.46690 | 23077 ft | 423 kts | 92° |
| 2026-05-09 21:57 | 50.57958 | -3.42051 | 23092 ft | 425 kts | 84° |
| 2026-05-09 21:57 | 50.58599 | -3.37524 | 23092 ft | 425 kts | 75° |
| 2026-05-09 21:57 | 50.59437 | -3.33047 | 23080 ft | 428 kts | 75° |
| 2026-05-09 21:57 | 50.60269 | -3.28564 | 23079 ft | 426 kts | 75° |
| 2026-05-09 21:58 | 50.61102 | -3.24083 | 23081 ft | 428 kts | 75° |
| 2026-05-09 21:58 | 50.61937 | -3.19582 | 23074 ft | 427 kts | 76° |
| 2026-05-09 21:58 | 50.62771 | -3.15090 | 23073 ft | 430 kts | 75° |
| 2026-05-09 21:58 | 50.63605 | -3.10573 | 23074 ft | 429 kts | 75° |
| 2026-05-09 21:59 | 50.64424 | -3.06131 | 23085 ft | 429 kts | 76° |
| 2026-05-09 21:59 | 50.65255 | -3.01609 | 23077 ft | 429 kts | 75° |
| 2026-05-09 21:59 | 50.66082 | -2.97114 | 23077 ft | 427 kts | 76° |
| 2026-05-09 21:59 | 50.66905 | -2.92617 | 23068 ft | 429 kts | 76° |
| 2026-05-09 22:00 | 50.67728 | -2.88109 | 23078 ft | 427 kts | 76° |
| 2026-05-09 22:00 | 50.68551 | -2.83595 | 23080 ft | 430 kts | 76° |
| 2026-05-09 22:00 | 50.69372 | -2.79072 | 23070 ft | 428 kts | 76° |
| 2026-05-09 22:00 | 50.70186 | -2.74568 | 23075 ft | 427 kts | 75° |
| 2026-05-09 22:01 | 50.71000 | -2.70063 | 23070 ft | 427 kts | 75° |
| 2026-05-09 22:01 | 50.71814 | -2.65555 | 23071 ft | 427 kts | 75° |
| 2026-05-09 22:01 | 50.72614 | -2.61114 | 23068 ft | 427 kts | 75° |
| 2026-05-09 22:01 | 50.73425 | -2.56597 | 23079 ft | 427 kts | 75° |
| 2026-05-09 22:02 | 50.74233 | -2.52086 | 23077 ft | 427 kts | 76° |
| 2026-05-09 22:02 | 50.75040 | -2.47568 | 23064 ft | 427 kts | 76° |
| 2026-05-09 22:02 | 50.75844 | -2.43053 | 23075 ft | 427 kts | 76° |
| 2026-05-09 22:02 | 50.76646 | -2.38537 | 23080 ft | 427 kts | 76° |
| 2026-05-09 22:03 | 50.77447 | -2.34016 | 23071 ft | 427 kts | 76° |
| 2026-05-09 22:03 | 50.78250 | -2.29473 | 23072 ft | 432 kts | 76° |
| 2026-05-09 22:03 | 50.79046 | -2.24958 | 23072 ft | 432 kts | 76° |
| 2026-05-09 22:03 | 50.79849 | -2.20394 | 23075 ft | 431 kts | 76° |
| 2026-05-09 22:04 | 50.80650 | -2.15825 | 23075 ft | 431 kts | 76° |
| 2026-05-09 22:04 | 50.81450 | -2.11257 | 23067 ft | 431 kts | 76° |
| 2026-05-09 22:04 | 50.82248 | -2.06683 | 23074 ft | 431 kts | 76° |
| 2026-05-09 22:04 | 50.83089 | -2.02136 | 23067 ft | 432 kts | 71° |
| 2026-05-09 22:05 | 50.84473 | -1.97914 | 23062 ft | 433 kts | 56° |
| 2026-05-09 22:05 | 50.86305 | -1.94140 | 22695 ft | 433 kts | 52° |
| 2026-05-09 22:05 | 50.88190 | -1.90444 | 22220 ft | 431 kts | 51° |
| 2026-05-09 22:05 | 50.90061 | -1.86788 | 21803 ft | 422 kts | 51° |
| 2026-05-09 22:06 | 50.91856 | -1.83255 | 21181 ft | 421 kts | 51° |
| 2026-05-09 22:06 | 50.93682 | -1.79630 | 20498 ft | 420 kts | 52° |
| 2026-05-09 22:06 | 50.95487 | -1.76022 | 19918 ft | 415 kts | 52° |
| 2026-05-09 22:06 | 50.97261 | -1.72459 | 19335 ft | 405 kts | 52° |
| 2026-05-09 22:07 | 50.98984 | -1.68993 | 18801 ft | 401 kts | 52° |
| 2026-05-09 22:07 | 51.00714 | -1.65511 | 18225 ft | 400 kts | 52° |
| 2026-05-09 22:07 | 51.02428 | -1.62059 | 17611 ft | 395 kts | 52° |
| 2026-05-09 22:07 | 51.04121 | -1.58647 | 17004 ft | 392 kts | 52° |
| 2026-05-09 22:08 | 51.05807 | -1.55243 | 16419 ft | 395 kts | 52° |
| 2026-05-09 22:08 | 51.07473 | -1.51877 | 15840 ft | 390 kts | 52° |
| 2026-05-09 22:08 | 51.09134 | -1.48517 | 15270 ft | 383 kts | 52° |
| 2026-05-09 22:08 | 51.10757 | -1.45229 | 14334 ft | 375 kts | 52° |
| 2026-05-09 22:09 | 51.12359 | -1.41979 | 13285 ft | 371 kts | 52° |
| 2026-05-09 22:09 | 51.13937 | -1.38778 | 12305 ft | 364 kts | 52° |
| 2026-05-09 22:09 | 51.15477 | -1.35647 | 11406 ft | 354 kts | 52° |
| 2026-05-09 22:09 | 51.16984 | -1.32579 | 10416 ft | 350 kts | 52° |
| 2026-05-09 22:10 | 51.18442 | -1.29604 | 9993 ft | 328 kts | 52° |
| 2026-05-09 22:10 | 51.19791 | -1.26854 | 9730 ft | 302 kts | 52° |
| 2026-05-09 22:10 | 51.21026 | -1.24332 | 9514 ft | 277 kts | 52° |
| 2026-05-09 22:10 | 51.22146 | -1.22043 | 9276 ft | 254 kts | 52° |
| 2026-05-09 22:11 | 51.23213 | -1.19858 | 8733 ft | 246 kts | 52° |
| 2026-05-09 22:11 | 51.24258 | -1.17716 | 8232 ft | 243 kts | 52° |
| 2026-05-09 22:11 | 51.25291 | -1.15595 | 7789 ft | 240 kts | 52° |
| 2026-05-09 22:11 | 51.26306 | -1.13514 | 7432 ft | 234 kts | 52° |
| 2026-05-09 22:12 | 51.27302 | -1.11469 | 6981 ft | 233 kts | 52° |
| 2026-05-09 22:12 | 51.28284 | -1.09449 | 6458 ft | 230 kts | 52° |
| 2026-05-09 22:12 | 51.29255 | -1.07451 | 5911 ft | 226 kts | 52° |
| 2026-05-09 22:12 | 51.30200 | -1.05506 | 5342 ft | 224 kts | 52° |
| 2026-05-09 22:13 | 51.31147 | -1.03553 | 4824 ft | 220 kts | 52° |
| 2026-05-09 22:13 | 51.32097 | -1.01660 | 4293 ft | 216 kts | 45° |
| 2026-05-09 22:13 | 51.33299 | -1.00229 | 3718 ft | 216 kts | 35° |
| 2026-05-09 22:13 | 51.34542 | -0.98881 | 3168 ft | 215 kts | 36° |
| 2026-05-09 22:14 | 51.35775 | -0.97564 | 2717 ft | 210 kts | 36° |
| 2026-05-09 22:14 | 51.37012 | -0.96267 | 2547 ft | 216 kts | 36° |
| 2026-05-09 22:14 | 51.38257 | -0.94987 | 2511 ft | 210 kts | 35° |
| 2026-05-09 22:14 | 51.39476 | -0.93720 | 2501 ft | 210 kts | 36° |
| 2026-05-09 22:15 | 51.40704 | -0.92451 | 2504 ft | 211 kts | 36° |
| 2026-05-09 22:15 | 51.41916 | -0.91197 | 2504 ft | 210 kts | 36° |
| 2026-05-09 22:15 | 51.43140 | -0.89924 | 2503 ft | 210 kts | 36° |
| 2026-05-09 22:15 | 51.44373 | -0.88650 | 2507 ft | 210 kts | 36° |
| 2026-05-09 22:16 | 51.45458 | -0.87127 | 2505 ft | 207 kts | 55° |
| 2026-05-09 22:16 | 51.46039 | -0.85033 | 2509 ft | 207 kts | 75° |
| 2026-05-09 22:16 | 51.46225 | -0.82745 | 2509 ft | 207 kts | 85° |
| 2026-05-09 22:16 | 51.46255 | -0.80416 | 2515 ft | 210 kts | 88° |
| 2026-05-09 22:17 | 51.46265 | -0.78083 | 2505 ft | 209 kts | 87° |
| 2026-05-09 22:17 | 51.46280 | -0.75774 | 2518 ft | 205 kts | 87° |
| 2026-05-09 22:17 | 51.46296 | -0.73473 | 2518 ft | 208 kts | 88° |
| 2026-05-09 22:17 | 51.46311 | -0.71157 | 2519 ft | 209 kts | 87° |
| 2026-05-09 22:18 | 51.46326 | -0.68853 | 2523 ft | 208 kts | 87° |
| 2026-05-09 22:18 | 51.46342 | -0.66534 | 2390 ft | 208 kts | 87° |
| 2026-05-09 22:18 | 51.46357 | -0.64221 | 2110 ft | 205 kts | 87° |
| 2026-05-09 22:18 | 51.46371 | -0.61973 | 1825 ft | 194 kts | 87° |
| 2026-05-09 22:19 | 51.46384 | -0.59925 | 1556 ft | 175 kts | 87° |
| 2026-05-09 22:19 | 51.46396 | -0.58056 | 1331 ft | 161 kts | 87° |
| 2026-05-09 22:19 | 51.46407 | -0.56355 | 1132 ft | 142 kts | 87° |
| 2026-05-09 22:19 | 51.46418 | -0.54871 | 941 ft | 130 kts | 88° |
| 2026-05-09 22:20 | 51.46428 | -0.53413 | 754 ft | 125 kts | 88° |
| 2026-05-09 22:20 | 51.46434 | -0.51977 | 590 ft | 133 kts | 89° |
| 2026-05-09 22:20 | 51.46430 | -0.50573 | 376 ft | 126 kts | 89° |
| 2026-05-09 22:20 | 51.46444 | -0.49136 | 217 ft | 129 kts | 86° |
| 2026-05-09 22:21 | 51.46486 | -0.47761 | 98 ft | 117 kts | 90° |
| 2026-05-09 22:21 | 51.46485 | -0.46713 | 98 ft | 73 kts | 89° |
| 2026-05-09 22:21 | 51.46491 | -0.46044 | 92 ft | 48 kts | 92° |
| 2026-05-09 22:21 | 51.46461 | -0.45609 | 94 ft | 35 kts | 109° |
| 2026-05-09 22:22 | 51.46357 | -0.45405 | 94 ft | 16 kts | 171° |
| 2026-05-09 22:22 | 51.46339 | -0.45414 | 96 ft | 3 kts | 197° |
| 2026-05-09 22:22 | 51.46322 | -0.45455 | 95 ft | 6 kts | 245° |
| 2026-05-09 22:22 | 51.46293 | -0.45520 | 96 ft | 8 kts | 210° |
| 2026-05-09 22:23 | 51.46239 | -0.45494 | 96 ft | 10 kts | 154° |
| 2026-05-09 22:23 | 51.46205 | -0.45492 | 95 ft | 3 kts | 212° |
| 2026-05-09 22:23 | 51.46207 | -0.45520 | 95 ft | 2 kts | 273° |
| 2026-05-09 22:23 | 51.46217 | -0.45551 | 95 ft | 5 kts | 294° |
| 2026-05-09 22:24 | 51.46235 | -0.45626 | 94 ft | 8 kts | 290° |
| 2026-05-09 22:24 | 51.46242 | -0.45664 | 95 ft | 0 kts | 288° |